createdAt,value
2023-04-12T00:01:59.267Z,7.80
2023-04-12T00:04:28.921Z,7.80
2023-04-12T00:06:56.575Z,7.80
2023-04-12T00:09:23.539Z,7.90
2023-04-12T00:11:50.585Z,7.90
2023-04-12T00:14:17.490Z,7.90
2023-04-12T00:16:44.451Z,8.00
2023-04-12T00:19:11.580Z,8.00
2023-04-12T00:21:38.538Z,8.00
2023-04-12T00:24:05.632Z,8.10
2023-04-12T00:26:32.564Z,8.10
2023-04-12T00:28:59.496Z,8.20
2023-04-12T00:31:26.668Z,8.20
2023-04-12T00:33:53.709Z,8.10
2023-04-12T00:36:21.218Z,8.10
2023-04-12T00:38:48.190Z,8.10
2023-04-12T00:41:15.794Z,8.20
2023-04-12T00:43:42.882Z,8.20
2023-04-12T00:46:11.765Z,8.20
2023-04-12T00:48:40.104Z,8.20
2023-04-12T00:51:07.805Z,8.20
2023-04-12T00:53:35.742Z,8.20
2023-04-12T00:56:04.300Z,8.20
2023-04-12T00:58:31.933Z,8.20
2023-04-12T01:00:59.056Z,8.10
2023-04-12T01:03:28.186Z,8.10
2023-04-12T01:06:32.407Z,8.10
2023-04-12T01:09:20.549Z,8.00
2023-04-12T01:12:02.342Z,8.00
2023-04-12T01:14:43.198Z,7.90
2023-04-12T01:17:14.445Z,7.90
2023-04-12T01:19:59.140Z,7.90
2023-04-12T01:22:50.781Z,7.80
2023-04-12T01:25:45.912Z,7.70
2023-04-12T01:28:16.104Z,7.60
2023-04-12T01:30:44.114Z,7.50
2023-04-12T01:33:12.427Z,7.50
2023-04-12T01:35:40.931Z,7.50
2023-04-12T01:38:09.571Z,7.40
2023-04-12T01:40:38.018Z,7.40
2023-04-12T01:43:09.361Z,7.30
2023-04-12T01:45:36.649Z,7.20
2023-04-12T01:48:06.236Z,7.20
2023-04-12T01:51:06.369Z,7.10
2023-04-12T01:53:58.147Z,7.10
2023-04-12T01:56:30.842Z,7.10
2023-04-12T01:58:59.122Z,7.10
2023-04-12T02:01:29.283Z,7.10
2023-04-12T02:04:01.041Z,7.00
2023-04-12T02:06:28.582Z,6.90
2023-04-12T02:09:02.217Z,6.90
2023-04-12T02:11:29.719Z,6.90
2023-04-12T02:13:56.937Z,6.80
2023-04-12T02:16:25.014Z,6.80
2023-04-12T02:18:52.180Z,6.80
2023-04-12T02:21:19.213Z,6.90
2023-04-12T02:23:46.243Z,6.80
2023-04-12T02:26:13.183Z,6.70
2023-04-12T02:28:40.224Z,6.70
2023-04-12T02:31:08.395Z,6.60
2023-04-12T02:33:35.725Z,6.50
2023-04-12T02:36:02.776Z,6.40
2023-04-12T02:38:31.360Z,6.30
2023-04-12T02:40:58.330Z,6.20
2023-04-12T02:43:25.785Z,6.20
2023-04-12T02:45:52.771Z,6.20
2023-04-12T02:48:19.779Z,6.30
2023-04-12T02:50:46.693Z,6.30
2023-04-12T02:53:13.578Z,6.30
2023-04-12T02:55:40.500Z,6.30
2023-04-12T02:58:07.475Z,6.30
2023-04-12T03:00:34.399Z,6.30
2023-04-12T03:03:03.741Z,6.30
2023-04-12T03:05:30.913Z,6.30
2023-04-12T03:07:57.896Z,6.30
2023-04-12T03:10:24.837Z,6.30
2023-04-12T03:12:51.834Z,6.30
2023-04-12T03:15:18.881Z,6.30
2023-04-12T03:17:45.829Z,6.30
2023-04-12T03:20:13.528Z,6.30
2023-04-12T03:22:40.584Z,6.30
2023-04-12T03:25:09.756Z,6.30
2023-04-12T03:27:36.728Z,6.30
2023-04-12T03:30:04.077Z,6.30
2023-04-12T03:32:31.692Z,6.30
2023-04-12T03:34:58.636Z,6.30
2023-04-12T03:37:26.205Z,6.20
2023-04-12T03:39:53.172Z,6.30
2023-04-12T03:42:32.223Z,6.20
2023-04-12T03:45:01.268Z,6.20
2023-04-12T03:47:28.381Z,6.20
2023-04-12T03:50:10.429Z,6.20
2023-04-12T03:52:38.561Z,6.20
2023-04-12T03:55:07.460Z,6.20
2023-04-12T03:57:35.034Z,6.20
2023-04-12T04:00:02.640Z,6.20
2023-04-12T04:02:30.059Z,6.10
2023-04-12T04:04:57.238Z,6.10
2023-04-12T04:07:24.173Z,6.20
2023-04-12T04:09:51.138Z,6.20
2023-04-12T04:12:18.080Z,6.10
2023-04-12T04:14:45.096Z,6.00
2023-04-12T04:17:12.045Z,6.10
2023-04-12T04:19:39.208Z,6.10
2023-04-12T04:22:06.501Z,6.10
2023-04-12T04:24:34.258Z,6.00
2023-04-12T04:27:01.152Z,6.00
2023-04-12T04:29:29.267Z,6.00
2023-04-12T04:31:57.478Z,6.10
2023-04-12T04:34:25.578Z,6.10
2023-04-12T04:36:52.859Z,6.10
2023-04-12T04:39:20.084Z,6.00
2023-04-12T04:41:47.059Z,6.10
2023-04-12T04:44:14.407Z,6.10
2023-04-12T04:46:41.493Z,6.10
2023-04-12T04:49:08.457Z,6.10
2023-04-12T04:51:36.675Z,6.10
2023-04-12T04:54:03.761Z,6.20
2023-04-12T04:56:31.064Z,6.20
2023-04-12T04:58:58.351Z,6.20
2023-04-12T05:01:26.227Z,6.30
2023-04-12T05:03:55.577Z,6.30
2023-04-12T05:06:23.144Z,6.30
2023-04-12T05:08:50.235Z,6.30
2023-04-12T05:11:18.528Z,6.40
2023-04-12T05:13:45.460Z,6.50
2023-04-12T05:16:12.537Z,6.50
2023-04-12T05:18:39.472Z,6.60
2023-04-12T05:21:06.659Z,6.60
2023-04-12T05:23:37.141Z,6.60
2023-04-12T05:26:04.557Z,6.60
2023-04-12T05:28:31.536Z,6.70
2023-04-12T05:30:58.661Z,6.70
2023-04-12T05:33:26.288Z,6.80
2023-04-12T05:35:53.401Z,6.80
2023-04-12T05:38:20.370Z,6.80
2023-04-12T05:40:50.071Z,6.80
2023-04-12T05:43:17.818Z,6.90
2023-04-12T05:45:44.739Z,6.90
2023-04-12T05:48:11.734Z,7.00
2023-04-12T05:50:38.760Z,7.00
2023-04-12T05:53:06.051Z,7.00
2023-04-12T05:55:33.566Z,7.10
2023-04-12T05:58:01.218Z,7.00
2023-04-12T06:00:28.979Z,7.10
2023-04-12T06:02:58.494Z,7.10
2023-04-12T06:05:25.692Z,7.10
2023-04-12T06:07:52.677Z,7.10
2023-04-12T06:10:19.886Z,7.20
2023-04-12T06:12:47.768Z,7.20
2023-04-12T06:15:14.679Z,7.20
2023-04-12T06:17:41.600Z,7.20
2023-04-12T06:20:09.727Z,7.20
2023-04-12T06:22:37.759Z,7.20
2023-04-12T06:25:05.362Z,7.20
2023-04-12T06:27:32.388Z,7.20
2023-04-12T06:29:59.372Z,7.30
2023-04-12T06:32:26.525Z,7.30
2023-04-12T06:34:53.655Z,7.40
2023-04-12T06:37:21.754Z,7.40
2023-04-12T06:39:48.729Z,7.40
2023-04-12T06:42:16.063Z,7.50
2023-04-12T06:44:43.042Z,7.50
2023-04-12T06:47:10.073Z,7.60
2023-04-12T06:49:37.978Z,7.60
2023-04-12T06:52:05.536Z,7.60
2023-04-12T06:54:32.934Z,7.70
2023-04-12T06:57:01.728Z,7.70
2023-04-12T06:59:29.052Z,7.80
2023-04-12T07:01:56.131Z,7.90
2023-04-12T07:04:23.131Z,7.90
2023-04-12T07:06:50.437Z,7.90
2023-04-12T07:09:17.808Z,8.00
2023-04-12T07:11:44.996Z,8.00
2023-04-12T07:14:11.950Z,8.10
2023-04-12T07:16:38.841Z,8.20
2023-04-12T07:19:05.785Z,8.20
2023-04-12T07:21:32.880Z,8.20
2023-04-12T07:23:59.886Z,8.20
2023-04-12T07:26:27.123Z,8.20
2023-04-12T07:28:54.905Z,8.20
2023-04-12T07:31:22.406Z,8.20
2023-04-12T07:33:49.581Z,8.20
2023-04-12T07:36:17.501Z,8.20
2023-04-12T07:38:44.487Z,8.20
2023-04-12T07:41:11.389Z,8.30
2023-04-12T07:43:38.299Z,8.30
2023-04-12T07:46:08.457Z,8.40
2023-04-12T07:48:35.747Z,8.50
2023-04-12T07:51:02.780Z,8.60
2023-04-12T07:53:29.919Z,8.70
2023-04-12T07:55:57.011Z,8.70
2023-04-12T07:58:24.887Z,8.80
2023-04-12T08:00:52.023Z,8.80
2023-04-12T08:03:19.494Z,8.80
2023-04-12T08:05:49.636Z,8.90
2023-04-12T08:08:16.700Z,9.00
2023-04-12T08:10:43.662Z,9.00
2023-04-12T08:13:10.667Z,9.10
2023-04-12T08:15:37.801Z,9.10
2023-04-12T08:18:04.944Z,9.10
2023-04-12T08:20:32.811Z,9.20
2023-04-12T08:22:59.744Z,9.10
2023-04-12T08:25:27.092Z,9.20
2023-04-12T08:27:54.057Z,9.30
2023-04-12T08:30:26.650Z,9.30
2023-04-12T08:32:54.114Z,9.30
2023-04-12T08:35:22.365Z,9.40
2023-04-12T08:37:49.787Z,9.50
2023-04-12T08:40:17.203Z,9.60
2023-04-12T08:42:44.275Z,9.70
2023-04-12T08:45:12.435Z,9.80
2023-04-12T08:47:44.379Z,9.90
2023-04-12T08:50:15.574Z,10.00
2023-04-12T08:52:43.324Z,10.10
2023-04-12T08:55:12.889Z,10.10
2023-04-12T08:57:42.027Z,10.30
2023-04-12T09:00:10.829Z,10.30
2023-04-12T09:02:38.617Z,10.50
2023-04-12T09:05:07.058Z,10.50
2023-04-12T09:07:34.358Z,10.50
2023-04-12T09:10:02.002Z,10.50
2023-04-12T09:12:29.067Z,10.50
2023-04-12T09:15:09.297Z,10.30
2023-04-12T09:17:37.159Z,10.20
2023-04-12T09:20:23.637Z,10.30
2023-04-12T09:22:52.726Z,10.30
2023-04-12T09:25:34.990Z,10.10
2023-04-12T09:28:02.001Z,10.10
2023-04-12T09:30:28.914Z,9.80
2023-04-12T09:32:56.018Z,9.80
2023-04-12T09:35:35.799Z,9.70
2023-04-12T09:38:11.915Z,9.80
2023-04-12T09:40:39.220Z,9.60
2023-04-12T09:43:07.111Z,9.90
2023-04-12T09:45:39.071Z,10.10
2023-04-12T09:48:07.229Z,10.30
2023-04-12T09:50:34.392Z,10.50
2023-04-12T09:53:03.387Z,10.70
2023-04-12T09:55:32.410Z,10.70
2023-04-12T09:58:04.189Z,10.90
2023-04-12T10:00:34.379Z,11.00
2023-04-12T10:03:02.114Z,11.10
2023-04-12T10:05:30.295Z,11.40
2023-04-12T10:07:58.138Z,11.60
2023-04-12T10:10:25.145Z,11.60
2023-04-12T10:12:52.141Z,11.70
2023-04-12T10:15:21.901Z,11.80
2023-04-12T10:17:53.624Z,11.80
2023-04-12T10:20:24.765Z,11.80
2023-04-12T10:22:53.741Z,12.00
2023-04-12T10:25:25.865Z,12.00
2023-04-12T10:27:53.730Z,12.00
2023-04-12T10:30:24.149Z,12.10
2023-04-12T10:33:03.718Z,12.20
2023-04-12T10:35:53.955Z,12.30
2023-04-12T10:38:21.520Z,12.50
2023-04-12T10:41:06.997Z,12.50
2023-04-12T10:43:34.011Z,12.50
2023-04-12T10:46:05.144Z,12.20
2023-04-12T10:48:37.804Z,12.20
2023-04-12T10:51:28.754Z,12.20
2023-04-12T10:54:07.918Z,12.30
2023-04-12T10:56:39.593Z,12.40
2023-04-12T10:59:07.939Z,12.50
2023-04-12T11:01:38.450Z,12.50
2023-04-12T11:04:22.271Z,12.60
2023-04-12T11:07:10.065Z,12.60
2023-04-12T11:09:36.995Z,12.70
2023-04-12T11:12:04.015Z,12.30
2023-04-12T11:14:52.052Z,12.40
2023-04-12T11:17:20.508Z,12.40
2023-04-12T11:19:54.234Z,12.50
2023-04-12T11:22:22.775Z,12.50
2023-04-12T11:24:52.425Z,12.50
2023-04-12T11:27:21.090Z,12.50
2023-04-12T11:29:56.132Z,12.50
2023-04-12T11:32:25.087Z,12.60
2023-04-12T11:34:53.530Z,12.70
2023-04-12T11:37:21.696Z,12.70
2023-04-12T11:39:52.097Z,12.80
2023-04-12T11:42:21.298Z,12.80
2023-04-12T11:44:56.816Z,12.90
2023-04-12T11:47:26.944Z,13.10
2023-04-12T11:49:56.149Z,13.10
2023-04-12T11:52:30.293Z,13.30
2023-04-12T11:55:01.820Z,13.60
2023-04-12T11:57:29.273Z,13.60
2023-04-12T11:59:59.287Z,13.50
2023-04-12T12:02:29.862Z,13.50
2023-04-12T12:04:59.393Z,13.70
2023-04-12T12:07:26.782Z,13.60
2023-04-12T12:09:54.358Z,14.00
2023-04-12T12:12:24.145Z,14.10
2023-04-12T12:14:51.232Z,14.40
2023-04-12T12:17:18.335Z,14.50
2023-04-12T12:19:46.329Z,14.70
2023-04-12T12:22:18.024Z,14.90
2023-04-12T12:24:53.107Z,14.90
2023-04-12T12:27:25.029Z,14.80
2023-04-12T12:29:54.579Z,14.70
2023-04-12T12:32:23.388Z,14.80
2023-04-12T12:34:55.809Z,14.90
2023-04-12T12:37:30.349Z,14.90
2023-04-12T12:40:13.713Z,14.60
2023-04-12T12:42:51.852Z,14.40
2023-04-12T12:45:23.131Z,14.00
2023-04-12T12:47:52.898Z,14.20
2023-04-12T12:50:24.740Z,14.50
2023-04-12T12:52:52.946Z,14.50
2023-04-12T12:55:21.335Z,14.80
2023-04-12T12:58:06.032Z,14.80
2023-04-12T13:00:34.170Z,15.30
2023-04-12T13:03:03.582Z,15.50
2023-04-12T13:05:30.913Z,15.80
2023-04-12T13:07:57.880Z,15.90
2023-04-12T13:10:26.573Z,15.90
2023-04-12T13:12:53.752Z,16.20
2023-04-12T13:15:23.642Z,16.20
2023-04-12T13:17:55.301Z,16.30
2023-04-12T13:20:23.066Z,16.40
2023-04-12T13:22:52.192Z,16.60
2023-04-12T13:25:19.921Z,16.70
2023-04-12T13:27:49.068Z,16.80
2023-04-12T13:30:16.400Z,16.70
2023-04-12T13:32:44.815Z,16.70
2023-04-12T13:35:12.182Z,16.70
2023-04-12T13:37:39.416Z,16.70
2023-04-12T13:40:07.464Z,16.60
2023-04-12T13:42:34.723Z,16.40
2023-04-12T13:45:04.037Z,16.20
2023-04-12T13:47:31.881Z,15.80
2023-04-12T13:49:58.884Z,15.30
2023-04-12T13:52:25.877Z,15.10
2023-04-12T13:54:53.284Z,14.90
2023-04-12T13:57:20.627Z,14.80
2023-04-12T13:59:47.502Z,14.70
2023-04-12T14:02:14.743Z,14.60
2023-04-12T14:04:52.630Z,14.50
2023-04-12T14:07:20.625Z,14.40
2023-04-12T14:09:48.800Z,13.90
2023-04-12T14:12:16.090Z,13.80
2023-04-12T14:14:42.967Z,13.60
2023-04-12T14:17:09.967Z,13.50
2023-04-12T14:19:36.997Z,13.50
2023-04-12T14:22:04.021Z,13.60
2023-04-12T14:24:31.488Z,13.70
2023-04-12T14:27:00.897Z,13.70
2023-04-12T14:29:27.894Z,13.60
2023-04-12T14:31:54.842Z,13.60
2023-04-12T14:34:21.739Z,13.60
2023-04-12T14:36:48.639Z,13.50
2023-04-12T14:41:42.606Z,13.40
2023-04-12T14:44:09.554Z,13.50
2023-04-12T14:46:36.957Z,13.50
2023-04-12T14:49:03.909Z,13.30
2023-04-12T14:51:32.149Z,13.20
2023-04-12T14:53:59.337Z,13.10
2023-04-12T14:56:28.710Z,13.20
2023-04-12T14:58:57.794Z,13.20
2023-04-12T15:01:25.810Z,13.20
2023-04-12T15:03:55.083Z,13.10
2023-04-12T15:06:30.450Z,13.20
2023-04-12T15:08:57.577Z,13.30
2023-04-12T15:11:27.313Z,12.90
2023-04-12T15:13:55.452Z,13.00
2023-04-12T15:16:23.210Z,13.00
2023-04-12T15:18:51.798Z,12.90
2023-04-12T15:21:19.141Z,12.90
2023-04-12T15:23:47.364Z,13.00
2023-04-12T15:26:14.573Z,12.80
2023-04-12T15:28:42.456Z,12.50
2023-04-12T15:31:11.859Z,12.40
2023-04-12T15:33:38.828Z,12.40
2023-04-12T15:36:06.306Z,12.40
2023-04-12T15:38:40.828Z,12.50
2023-04-12T15:41:07.903Z,12.50
2023-04-12T15:43:35.360Z,12.50
2023-04-12T15:46:02.669Z,12.50
2023-04-12T15:48:29.896Z,12.40
2023-04-12T15:50:57.196Z,12.20
2023-04-12T15:53:27.344Z,12.10
2023-04-12T15:55:55.134Z,12.00
2023-04-12T15:58:27.028Z,12.00
2023-04-12T16:00:54.513Z,11.90
2023-04-12T16:03:26.239Z,11.80
2023-04-12T16:05:54.204Z,11.80
2023-04-12T16:08:22.230Z,11.80
2023-04-12T16:10:50.297Z,11.80
2023-04-12T16:13:17.307Z,11.70
2023-04-12T16:15:44.384Z,11.70
2023-04-12T16:18:11.931Z,11.70
2023-04-12T16:20:40.804Z,11.70
2023-04-12T16:23:07.842Z,11.60
2023-04-12T16:25:36.124Z,11.60
2023-04-12T16:28:03.589Z,11.50
2023-04-12T16:30:32.097Z,11.50
2023-04-12T16:32:59.350Z,11.40
2023-04-12T16:35:26.534Z,11.40
2023-04-12T16:37:54.308Z,11.40
2023-04-12T16:40:22.180Z,11.30
2023-04-12T16:42:49.181Z,11.20
2023-04-12T16:45:16.323Z,11.10
2023-04-12T16:47:46.921Z,11.00
2023-04-12T16:50:14.201Z,11.00
2023-04-12T16:52:41.966Z,10.90
2023-04-12T16:55:12.589Z,10.90
2023-04-12T16:57:41.553Z,10.80
2023-04-12T17:00:28.900Z,10.70
2023-04-12T17:02:56.047Z,10.70
2023-04-12T17:05:24.795Z,10.70
2023-04-12T17:07:54.199Z,10.70
2023-04-12T17:10:22.993Z,10.70
2023-04-12T17:12:54.723Z,10.60
2023-04-12T17:15:22.099Z,10.50
2023-04-12T17:17:51.656Z,10.50
2023-04-12T17:20:23.191Z,10.60
2023-04-12T17:22:51.010Z,10.60
2023-04-12T17:25:19.866Z,10.60
2023-04-12T17:27:48.248Z,10.60
2023-04-12T17:30:17.789Z,10.60
2023-04-12T17:32:48.402Z,10.50
2023-04-12T17:35:17.866Z,10.50
2023-04-12T17:37:45.839Z,10.50
2023-04-12T17:40:14.054Z,10.40
2023-04-12T17:42:42.820Z,10.40
2023-04-12T17:45:14.689Z,10.40
2023-04-12T17:47:42.688Z,10.30
2023-04-12T17:50:11.227Z,10.30
2023-04-12T17:52:38.865Z,10.30
2023-04-12T17:55:07.582Z,10.20
2023-04-12T17:57:34.679Z,10.10
2023-04-12T18:00:01.636Z,10.10
2023-04-12T18:02:28.937Z,10.10
2023-04-12T18:04:55.965Z,10.10
2023-04-12T18:07:23.144Z,10.00
2023-04-12T18:09:51.391Z,10.00
2023-04-12T18:12:18.493Z,9.90
2023-04-12T18:14:45.443Z,9.90
2023-04-12T18:17:12.413Z,9.80
2023-04-12T18:19:39.383Z,9.80
2023-04-12T18:22:06.364Z,9.70
2023-04-12T18:24:33.368Z,9.70
2023-04-12T18:27:01.572Z,9.70
2023-04-12T18:29:28.576Z,9.70
2023-04-12T18:31:55.869Z,9.70
2023-04-12T18:34:23.001Z,9.60
2023-04-12T18:36:50.054Z,9.60
2023-04-12T18:39:17.015Z,9.50
2023-04-12T18:41:43.874Z,9.40
2023-04-12T18:46:18.326Z,9.30
2023-04-12T18:48:46.942Z,9.30
2023-04-12T18:51:14.869Z,9.20
2023-04-12T18:53:41.863Z,9.20
2023-04-12T18:56:12.364Z,9.30
2023-04-12T18:58:53.990Z,9.30
2023-04-12T19:01:22.902Z,9.30
2023-04-12T19:03:50.205Z,9.30
2023-04-12T19:06:17.567Z,9.20
2023-04-12T19:08:44.568Z,9.10
2023-04-12T19:11:11.701Z,9.20
2023-04-12T19:13:38.605Z,9.10
2023-04-12T19:16:09.174Z,9.00
2023-04-12T19:18:36.187Z,9.00
2023-04-12T19:21:04.363Z,9.00
2023-04-12T19:23:31.620Z,9.00
2023-04-12T19:26:00.145Z,9.00
2023-04-12T19:28:27.931Z,9.00
2023-04-12T19:30:57.560Z,9.00
2023-04-12T19:33:25.484Z,9.00
2023-04-12T19:35:55.237Z,9.00
2023-04-12T19:38:22.257Z,8.90
2023-04-12T19:40:51.006Z,8.90
2023-04-12T19:43:21.106Z,8.90
2023-04-12T19:45:48.333Z,8.80
2023-04-12T19:48:17.074Z,8.80
2023-04-12T19:50:47.901Z,8.80
2023-04-12T19:53:18.156Z,8.80
2023-04-12T19:55:45.353Z,8.90
2023-04-12T19:58:13.591Z,8.90
2023-04-12T20:00:41.372Z,8.90
2023-04-12T20:03:09.472Z,8.90
2023-04-12T20:05:36.701Z,9.00
2023-04-12T20:08:03.882Z,9.00
2023-04-12T20:10:30.923Z,8.90
2023-04-12T20:12:57.956Z,9.00
2023-04-12T20:15:24.921Z,9.00
2023-04-12T20:17:52.796Z,9.00
2023-04-12T20:20:19.939Z,9.00
2023-04-12T20:22:51.765Z,9.00
2023-04-12T20:25:20.506Z,9.00
2023-04-12T20:27:51.847Z,9.00
2023-04-12T20:30:21.112Z,9.00
2023-04-12T20:32:49.363Z,9.00
2023-04-12T20:35:17.998Z,9.00
2023-04-12T20:37:49.503Z,8.90
2023-04-12T20:40:16.751Z,8.90
2023-04-12T20:42:45.075Z,8.90
2023-04-12T20:45:13.276Z,8.90
2023-04-12T20:47:40.489Z,8.90
2023-04-12T20:50:08.457Z,8.80
2023-04-12T20:52:35.484Z,8.80
2023-04-12T20:55:02.465Z,8.80
2023-04-12T20:57:30.215Z,8.80
2023-04-12T20:59:57.254Z,8.80
2023-04-12T21:02:24.371Z,8.80
2023-04-12T21:04:52.179Z,8.80
2023-04-12T21:07:20.264Z,8.80
2023-04-12T21:09:47.185Z,8.80
2023-04-12T21:12:15.095Z,8.80
2023-04-12T21:14:42.416Z,8.70
2023-04-12T21:17:09.486Z,8.70
2023-04-12T21:19:41.609Z,8.60
2023-04-12T21:22:08.795Z,8.60
2023-04-12T21:24:38.345Z,8.70
2023-04-12T21:27:08.514Z,8.70
2023-04-12T21:29:41.087Z,8.70
2023-04-12T21:32:09.259Z,8.70
2023-04-12T21:34:37.366Z,8.70
2023-04-12T21:37:05.457Z,8.70
2023-04-12T21:39:32.960Z,8.70
2023-04-12T21:41:59.904Z,8.70
2023-04-12T21:44:26.899Z,8.70
2023-04-12T21:46:53.793Z,8.60
2023-04-12T21:49:21.020Z,8.60
2023-04-12T21:51:49.197Z,8.60
2023-04-12T21:54:16.814Z,8.60
2023-04-12T21:56:43.839Z,8.50
2023-04-12T21:59:10.888Z,8.50
2023-04-12T22:01:38.103Z,8.50
2023-04-12T22:04:06.036Z,8.50
2023-04-12T22:06:33.132Z,8.50
2023-04-12T22:09:02.055Z,8.60
2023-04-12T22:11:30.576Z,8.60
2023-04-12T22:13:57.999Z,8.60
2023-04-12T22:16:25.169Z,8.60
2023-04-12T22:18:52.837Z,8.60
2023-04-12T22:21:19.840Z,8.60
2023-04-12T22:23:46.837Z,8.60
2023-04-12T22:26:14.009Z,8.60
2023-04-12T22:28:42.628Z,8.60
2023-04-12T22:31:16.296Z,8.60
2023-04-12T22:33:43.830Z,8.50
2023-04-12T22:36:10.996Z,8.50
2023-04-12T22:38:38.333Z,8.50
2023-04-12T22:41:06.193Z,8.50
2023-04-12T22:43:41.787Z,8.50
2023-04-12T22:46:15.924Z,8.50
2023-04-12T22:48:48.015Z,8.60
2023-04-12T22:51:15.657Z,8.50
2023-04-12T22:53:43.727Z,8.50
2023-04-12T22:56:11.340Z,8.50
2023-04-12T22:58:40.274Z,8.50
2023-04-12T23:01:07.561Z,8.50
2023-04-12T23:03:34.717Z,8.50
2023-04-12T23:06:02.070Z,8.60
2023-04-12T23:08:29.313Z,8.60
2023-04-12T23:11:02.757Z,8.60
2023-04-12T23:13:33.858Z,8.70
2023-04-12T23:16:05.471Z,8.70
2023-04-12T23:18:32.887Z,8.80
2023-04-12T23:21:01.588Z,8.80
2023-04-12T23:23:28.721Z,8.70
2023-04-12T23:25:55.659Z,8.70
2023-04-12T23:28:24.385Z,8.60
2023-04-12T23:30:51.765Z,8.60
2023-04-12T23:33:20.603Z,8.60
2023-04-12T23:35:49.664Z,8.60
2023-04-12T23:38:23.164Z,8.60
2023-04-12T23:40:53.868Z,8.60
2023-04-12T23:43:22.894Z,8.60
2023-04-12T23:45:49.911Z,8.60
2023-04-12T23:48:16.942Z,8.50
2023-04-12T23:50:45.798Z,8.60
2023-04-12T23:53:13.136Z,8.60
2023-04-12T23:55:42.482Z,8.50
2023-04-12T23:58:10.539Z,8.50
